Tiempo atmosférico en la estación meteorológica de Robledo De Chavela, Madrid (790 m.)



Fecha
DESCASC
Temp. máxima en grados centígrados (hora)
DESCASC
Temp. mínima en grados centígrados (hora)
DESCASC
Temp. media en grados centígrados
DESCASC
Racha de viento máxima en m/sg (hora)
DESCASC
Velocidad máxima media en intervalos de 10 minutos(hora)
DESCASC
Precipitaciones diarias en mm
DESCASC
Precipitaciones de 00:00 a 06:00 en mm
DESCASC
Precipitaciones de 06:00 a 12:00 en mm
DESCASC
Precipitaciones de 12:00 a 18:00 en mm
DESCASC
Precipitaciones de 18:00 a 24:00 en mm
DESCASC
17-10-2019 18.1 (17:10) 8.2 (03:00) 13.2 5.83 (16:50) 3.61 (17:30) 0.2 0 0.1 0 0.1
16-10-2019 18.4 (16:40) 4.5 (08:10) 11.4 6.39 (14:50) 3.33 (17:20) 0.3 0.1 0 0.1 0.1
15-10-2019 15.7 (15:40) 6.9 (06:00) 11.3 9.17 (01:00) 4.72 (15:30) 0.8 0.3 0.2 0.1 0.2
14-10-2019 17.8 (00:20) 9.1 (22:30) 13.4 14.17 (14:20) 7.22 (14:10) 1.3 0 0.3 0.4 0.6
13-10-2019 22.4 (15:30) 15.5 (00:00) 18.9 8.89 (13:40) 4.17 (16:00) 0 0 0 0 0
12-10-2019 26.7 (17:10) 16.5 (00:00) 21.6 7.22 (15:30) 3.89 (16:30) 0 0 0 0 0
11-10-2019 25.5 (17:10) 14.4 (00:00) 19.9 6.39 (12:00) 3.33 (13:20) 0 0 0 0 0
10-10-2019 25.7 (17:40) 13.2 (00:00) 19.5 7.22 (05:20) 3.61 (12:10) 0 0 0 0 0
09-10-2019 28.3 (17:30) 17.6 (00:00) 22.9 11.67 (08:00) 5.28 (08:10) 0 0 0 0 0
08-10-2019 29.1 (17:10) 13.3 (00:00) 21.2 8.06 (23:50) 3.89 (23:50) 0 0 0 0 0
07-10-2019 29.9 (16:50) 17.7 (00:00) 23.8 13.89 (03:20) 6.67 (04:00) 0 0 0 0 0
06-10-2019 27.9 (15:10) 12.6 (00:00) 20.3 10 (03:50) 5.28 (00:10) 0 0 0 0 0
05-10-2019 27.5 (16:50) 12.7 (00:00) 20.1 8.89 (23:40) 5 (23:59) 0 0 0 0 0
04-10-2019 27.7 (16:10) 11.9 (00:00) 19.8 8.89 (01:40) 4.72 (18:00) 0 0 0 0 0
03-10-2019 27 (17:40) 9.1 (00:00) 18.1 9.17 (16:40) 4.72 (00:40) 0 0 0 0 0
02-10-2019 22.7 (16:50) 12.4 (00:00) 17.6 11.67 (05:30) 6.67 (03:30) 0 0 0 0 0
01-10-2019 24.6 (16:50) 12.2 (00:00) 18.4 12.78 (15:20) 5.83 (12:10) 0 0 0 0 0
30-09-2019 29.5 (17:50) 13 (00:00) 21.3 8.33 (19:20) 3.89 (01:50) 0 0 0 0 0
29-09-2019 29.6 (17:10) 12.1 (00:00) 20.9 7.78 (14:10) 4.17 (22:50) 0 0 0 0 0
28-09-2019 28.8 (17:20) 11.9 (00:00) 20.3 11.67 (00:30) 5.83 (01:10) 0 0 0 0 0
27-09-2019 29.2 (16:50) 13.7 (00:00) 21.5 9.72 (23:20) 4.72 (23:30) 0 0 0 0 0
26-09-2019 27.3 (16:20) 11.7 (00:00) 19.5 9.72 (23:59) 4.17 (23:59) 0 0 0 0 0
25-09-2019 24.3 (16:30) 14.1 (00:00) 19.2 12.5 (10:20) 6.67 (10:10) 0 0 0 0 0
24-09-2019 27.1 (16:10) 10.6 (00:00) 18.9 8.61 (19:40) 4.44 (15:30) 0.1 0 0.1 0 0
23-09-2019 23.3 (16:30) 9.6 (00:00) 16.4 6.94 (16:10) 3.61 (17:50) 0.4 0.1 0.1 0.1 0.1
22-09-2019 22 (16:40) 13.6 (00:00) 17.8 8.89 (14:20) 3.89 (12:30) 0.6 0.2 0.1 0.2 0.1
21-09-2019 18.9 (11:40) 12.5 (00:00) 15.7 8.33 (20:10) 3.89 (20:10) 0.5 0.1 0.2 0.1 0.1
20-09-2019 24.8 (16:20) 17.2 (00:00) 21 10.28 (19:20) 4.17 (15:10) 0.7 0.2 0.2 0.2 0.1

Gráficas

Temp. máximas Temp. mínimas Temp. medias Precipitaciones Rachas de viento máximas Velocidades máximas media en intervalos de 10 minutos

Datos horarios

Fecha y hora oficial Temperatura (ºC) Velocidad del viento (km/h) Dirección del viento Racha (km/h) Dirección de racha Precipitación (mm) Presión (hPa) Tendencia (hPa) Humedad (%)
2019-10-19 23:00:00 12.2 3 Sur 10 Este 0 917.3 -1 86
2019-10-19 22:00:00 12.4 0 Calma 14 Nordeste 0 918 -1.6 85
2019-10-19 21:00:00 12.3 4 Nordeste 14 Nordeste 0 917.8 -2.5 84
2019-10-19 20:00:00 13.5 9 Nordeste 14 Nordeste 0 918.3 -2.1 69
2019-10-19 19:00:00 13.5 4 Oeste 16 Sudoeste 0 919.6 -1.4 70
2019-10-19 18:00:00 13 10 Sudoeste 22 Sur 0 920.3 -1.1 71
2019-10-19 17:00:00 13.4 15 Sudoeste 30 Sudoeste 0 920.4 -1.7 63
2019-10-19 16:00:00 15.1 19 Sudoeste 35 Sudoeste 0 921 -1.9 54
2019-10-19 15:00:00 15.1 12 Oeste 37 Sudoeste 0 921.4 -2.1 51
2019-10-19 14:00:00 15.5 18 Sudoeste 32 Sudoeste 0 922.1 -1.8 47
2019-10-19 13:00:00 13.5 13 Sur 26 Sur 0 922.9 -0.9 58
2019-10-19 12:00:00 12.3 14 Sudoeste 29 Sudoeste 0 923.5 -0.1 62
2019-10-19 11:00:00 11.3 15 Sudoeste 28 Sudoeste 0 923.9 0.2 66
2019-10-19 10:00:00 10.8 10 Sudoeste 23 Sudoeste 0 923.8 -0.4 73
2019-10-19 09:00:00 10.3 13 Sudoeste 29 Oeste 0 923.6 -1.1 75
2019-10-19 08:00:00 10.4 9 Sudoeste 25 Sudoeste 0 923.7 -0.8 71
2019-10-19 07:00:00 11.2 9 Oeste 20 Oeste 0 924.2 -0.5 66
2019-10-19 06:00:00 10.3 5 Oeste 18 Oeste 0 924.7 -0.8 64
2019-10-19 05:00:00 11.7 13 Oeste 43 Oeste 0 924.5 -1.3 61
2019-10-19 04:00:00 12.4 20 Oeste 34 Sudoeste 0 924.7 -1.4 56
2019-10-19 03:00:00 12.5 14 Sudoeste 32 Sudoeste 0.1 925.5 -0.8 57
2019-10-19 02:00:00 12.9 12 Sudoeste 26 Sudoeste 0 925.8 -0.8 60
2019-10-19 01:00:00 13.3 12 Sudoeste 22 Sudoeste 0 926.1 -0.5 57
2019-10-19 00:00:00 14.1 11 Oeste 27 Oeste 0 926.3 -0.4 54
2019-10-18 23:00:00 14.5 13 Oeste 20 Oeste 0 926.6 0.1 56
2019-10-18 22:00:00 15.1 13 Oeste 36 Oeste 0 926.6 0.2 59
2019-10-18 21:00:00 16.1 10 Oeste 37 Oeste 0 926.7 -0.2 55
2019-10-18 20:00:00 16.8 15 Oeste 39 Oeste 0 926.5 -1 52
2019-10-18 19:00:00 17.3 13 Oeste 39 Oeste 0 926.4 -1.3 54
2019-10-18 18:00:00 18.2 14 Oeste 35 Sur 0 926.9 -1.4 53
2019-10-18 17:00:00 17.7 18 Oeste 39 Oeste 0 927.5 -1.5 56
2019-10-18 16:00:00 17.1 14 Oeste 33 Oeste 0 927.7 -1.7 65
2019-10-18 15:00:00 17.7 14 Oeste 33 Oeste 0 928.3 -1.4 61
2019-10-18 14:00:00 18.5 13 Sudoeste 33 Oeste 0.1 929 -0.7 57
2019-10-18 13:00:00 17.7 14 Sudoeste 27 Sudoeste 0 929.4 -0.3 74
2019-10-18 12:00:00 15.8 12 Sudoeste 20 Sudoeste 0 929.7 0.4 81
2019-10-18 11:00:00 16 5 Sudoeste 12 Oeste 0 929.7 0.6 84
2019-10-18 10:00:00 15.1 7 Oeste 18 Oeste 0 929.7 0.5 86
2019-10-18 09:00:00 14.6 9 Sudoeste 20 Sudoeste 0 929.3 -0.1 88
2019-10-18 08:00:00 14.3 10 Sudoeste 24 Sudoeste 0 929.1 -0.1 88
2019-10-18 07:00:00 14.3 8 Sudoeste 28 Oeste 0 929.2 -0.4 88
2019-10-18 06:00:00 14.4 15 Oeste 34 Oeste 0.1 929.4 -1 88
2019-10-18 05:00:00 13.8 5 Sudoeste 14 Sudoeste 0 929.2 -1.1 88
2019-10-18 04:00:00 13.8 8 Sur 16 Sudoeste 0 929.6 -1.3 88
2019-10-18 03:00:00 13.9 6 Sudoeste 26 Sur 0 930.4 -0.7 88
2019-10-18 02:00:00 13.8 8 Sudoeste 13 Sudoeste 0 930.3 -1.1 88
2019-10-18 01:00:00 13.9 0 Calma 8 Sudoeste 0 930.9 -0.2 88
2019-10-18 00:00:00 13.7 0 Calma 6 Sur 0 931.1 0.3 87
2019-10-17 23:00:00 14.1 0 Calma 8 Nordeste 0 931.4 0.7 83
2019-10-17 22:00:00 14.1 5 Nordeste 10 Sudeste 0 931.1 0.9 82
2019-10-17 21:00:00 14.3 5 Este 10 Sudeste 0 930.8 0.7 80
2019-10-17 20:00:00 14.4 5 Sudeste 10 Sudoeste 0.1 930.7 0.5 78
2019-10-17 19:00:00 15.3 7 Sur 13 Sudoeste 0 930.2 -0.4 72
2019-10-17 18:00:00 16.3 6 Sudoeste 20 Sur 0 930.1 -0.9 66
2019-10-17 17:00:00 17.8 9 Sur 21 Sur 0 930.2 -1.4 64
2019-10-17 16:00:00 15.4 9 Sur 18 Sur 0 930.6 -1.4 73
2019-10-17 15:00:00 14.3 9 Sur 19 Sur 0 931 -1.1 72
2019-10-17 14:00:00 13.6 6 Sudoeste 14 Sudoeste 0 931.6 -0.3 71
2019-10-17 13:00:00 12.8 3 Sur 9 Sudoeste 0 932 0.3 71
2019-10-17 12:00:00 11.6 3 Sur 8 Sur 0 932.1 1.4 75
2019-10-17 11:00:00 10.8 4 Este 6 Este 0.1 931.9 1.6 73
2019-10-17 10:00:00 9.8 2 Sudoeste 11 Nordeste 0 931.7 1.6 82
2019-10-17 09:00:00 10.1 0 Calma 6 Nordeste 0 930.7 1.2 70
2019-10-17 08:00:00 9.8 0 Calma 8 Este 0 930.3 0.4 70
2019-10-17 07:00:00 9.7 3 Este 7 Nordeste 0 930.1 0.1 74
2019-10-17 06:00:00 9.3 0 Calma 7 Nordeste 0 929.5 -0.8 73
2019-10-17 05:00:00 9.1 2 Nordeste 9 Nordeste 0 929.9 -0.7 71
2019-10-17 04:00:00 9 4 Este 10 Nordeste 0 930 -0.6 72
2019-10-17 03:00:00 8.4 3 Nordeste 12 Este 0 930.3 -0.6 72
2019-10-17 02:00:00 9.8 7 Nordeste 15 Nordeste 0 930.6 -0.2 67
2019-10-17 01:00:00 9.8 8 Nordeste 14 Nordeste 0 930.6 0.1 65
2019-10-17 00:00:00 10.6 3 Este 10 Nordeste 0.1 930.9 0.2 61
2019-10-16 23:00:00 11.4 2 Nordeste 7 Sur 0 930.8 0.6 58
2019-10-16 22:00:00 12.8 4 Sudoeste 12 Sudoeste 0 930.5 0.5 52
2019-10-16 21:00:00 13.9 7 Sudoeste 20 Oeste 0 930.7 1.2 48
2019-10-16 20:00:00 14.4 3 Oeste 17 Oeste 0 930.2 0.1 42
2019-10-16 19:00:00 16.1 10 Sudoeste 19 Sudoeste 0 930 -0.4 35
2019-10-16 18:00:00 17.4 11 Sudoeste 22 Oeste 0 929.5 -1.5 31
2019-10-16 17:00:00 18 10 Sudoeste 23 Oeste 0 930.1 -1.9 31
2019-10-16 16:00:00 17.6 10 Sur 23 Sur 0 930.4 -2.2 34
2019-10-16 15:00:00 16.7 9 Sudoeste 23 Sudoeste 0 931 -1.6 40
2019-10-16 14:00:00 15.3 9 Sur 14 Sudoeste 0 932 -1 45
2019-10-16 13:00:00 14.3 6 Sudoeste 19 Sur 0.1 932.6 -0.3 48
2019-10-16 12:00:00 14.1 11 Sudoeste 18 Sur 0 932.6 0.3 48
2019-10-16 11:00:00 11.4 3 Sudoeste 8 Sudoeste 0 933 0.9 57
2019-10-16 10:00:00 8.9 3 Sudoeste 8 Nordeste 0 932.9 1.1 70
2019-10-16 09:00:00 5.7 2 Nordeste 7 Nordeste 0 932.3 0.5 85
2019-10-16 08:00:00 5.1 0 Calma 6 Nordeste 0 932.1 -0.1 84
2019-10-16 07:00:00 5.2 2 Este 4 Este 0 931.8 -0.6 84
2019-10-16 06:00:00 5.8 0 Calma 5 Nordeste 0.1 931.8 -1 80
2019-10-16 05:00:00 6.6 0 Calma 6 Oeste 0 932.2 -0.8 76
2019-10-16 04:00:00 7.8 3 Oeste 8 Norte 0 932.4 -0.9 71
2019-10-16 03:00:00 7.9 0 Calma 6 Nordeste 0 932.8 -0.6 68
2019-10-16 02:00:00 9.7 5 Noroeste 9 Noroeste 0 933 -0.2 59
2019-10-16 01:00:00 9.5 2 Oeste 4 Oeste 0 933.3 0.5 67
2019-10-16 00:00:00 9.2 0 Calma 4 Nordeste 0 933.4 0.9 67
2019-10-15 23:00:00 8.8 0 Calma 4 Este 0.1 933.2 0.9 65
2019-10-15 22:00:00 9.4 0 Calma 4 Nordeste 0 932.8 1 62
2019-10-15 21:00:00 10.5 0 Calma 8 Este 0 932.5 1 54
2019-10-15 20:00:00 12.6 0 Calma 16 Noroeste 0 932.3 0.3 44
2019-10-15 19:00:00 14.2 5 Sudoeste 22 Sudoeste 0.1 931.8 0 39
2019-10-15 18:00:00 15.4 10 Sudoeste 28 Sudoeste 0 931.5 -0.7 38
2019-10-15 17:00:00 15 15 Sudoeste 30 Sudoeste 0 932 -0.7 37
2019-10-15 16:00:00 14.9 14 Sudoeste 32 Sudoeste 0 931.8 -1.5 37
2019-10-15 15:00:00 15.4 14 Sudoeste 24 Sudoeste 0.1 932.2 -1.2 38
2019-10-15 14:00:00 14.9 8 Oeste 22 Noroeste 0 932.7 -0.4 39
2019-10-15 13:00:00 14.5 6 Noroeste 23 Noroeste 0 933.3 0.6 41
2019-10-15 12:00:00 13.1 4 Noroeste 19 Oeste 0.1 933.4 1.2 44
2019-10-15 11:00:00 11.4 7 Oeste 23 Oeste 0 933.1 1.3 48
2019-10-15 10:00:00 9.5 12 Noroeste 32 Noroeste 0 932.7 1 53
2019-10-15 09:00:00 8.1 9 Noroeste 29 Noroeste 0.1 932.2 0.8 57
2019-10-15 08:00:00 8.3 13 Noroeste 24 Noroeste 0 931.8 0.4 56
2019-10-15 07:00:00 7.9 11 Noroeste 24 Noroeste 0 931.7 0.3 58
2019-10-15 06:00:00 6.9 7 Noroeste 23 Norte 0.1 931.4 0.3 60
2019-10-15 05:00:00 7.8 10 Noroeste 23 Noroeste 0 931.4 0.6 56
2019-10-15 04:00:00 8.2 8 Norte 24 Norte 0 931.4 1.1 56
2019-10-15 03:00:00 8.3 9 Noroeste 28 Noroeste 0.1 931.1 1.4 55
2019-10-15 02:00:00 8.7 11 Noroeste 28 Oeste 0 930.8 1.6 56
2019-10-15 01:00:00 8.9 9 Oeste 33 Oeste 0.1 930.3 1.7 56
2019-10-15 00:00:00 9.3 5 Sudoeste 25 Norte 0.1 929.7 1.4 57
2019-10-14 23:00:00 9.8 8 Oeste 22 Oeste 0 929.2 1.7 60
2019-10-14 22:00:00 9.5 6 Noroeste 23 Noroeste 0.1 928.6 1.7 66
2019-10-14 21:00:00 9.9 10 Oeste 21 Noroeste 0.1 928.3 1.8 77
2019-10-14 20:00:00 10.2 5 Sudoeste 16 Noroeste 0.2 927.5 2.5 86
2019-10-14 19:00:00 10.5 7 Noroeste 27 Oeste 0.1 926.9 1.8 83
2019-10-14 18:00:00 11 15 Oeste 41 Oeste 0.1 926.5 1.9 81
2019-10-14 17:00:00 15.4 9 Oeste 33 Oeste 0 925 -0.7 45
2019-10-14 16:00:00 16.3 18 Oeste 42 Oeste 0 925.1 -1 40
2019-10-14 15:00:00 16.8 20 Sudoeste 51 Sudoeste 0 924.6 -1.4 39
2019-10-14 14:00:00 15.7 24 Oeste 47 Oeste 0.1 925.7 0.1 45
2019-10-14 13:00:00 14.7 22 Sudoeste 50 Sudoeste 0.2 926.1 1.6 62
2019-10-14 12:00:00 13.4 23 Oeste 44 Oeste 0.2 926 1.9 72
2019-10-14 11:00:00 13.4 17 Oeste 35 Sudoeste 0.1 925.6 1.7 78
2019-10-14 10:00:00 15.4 11 Sur 30 Oeste 0 924.5 1.6 64
2019-10-14 09:00:00 15.3 10 Oeste 34 Sudoeste 0 924.1 1.3 62
2019-10-14 08:00:00 16.6 10 Sudoeste 22 Sudoeste 0 923.9 0.7 55
2019-10-14 07:00:00 14.7 4 Este 9 Este 0 922.9 -0.8 56
2019-10-14 06:00:00 15.4 2 Norte 7 Este 0 922.8 -1.7 54
2019-10-14 05:00:00 16.3 0 Calma 17 Nordeste 0 923.2 -2 54
2019-10-14 04:00:00 17 7 Este 15 Este 0 923.7 -2.1 52
2019-10-14 03:00:00 17.3 4 Nordeste 12 Nordeste 0 924.5 -1.8 52
2019-10-14 02:00:00 17.2 0 Calma 13 Nordeste 0 925.2 -1.7 54
2019-10-14 01:00:00 17 0 Calma 15 Nordeste 0 925.8 -1.3 53
2019-10-14 00:00:00 17.3 8 Nordeste 14 Este 0 926.3 -0.9 52
2019-10-13 23:00:00 17.1 9 Nordeste 14 Nordeste 0 926.9 -0.2 52
2019-10-13 22:00:00 17.2 5 Nordeste 12 Nordeste 0 927.1 -0.2 51
2019-10-13 21:00:00 17.1 3 Nordeste 9 Nordeste 0 927.2 -0.1 49
2019-10-13 20:00:00 18.3 0 Calma 11 Sudeste 0 927.1 -0.8 43
2019-10-13 19:00:00 21 7 Sudeste 14 Sudoeste 0 927.3 -0.8 39
2019-10-13 18:00:00 21.6 4 Sur 15 Sudoeste 0 927.3 -1.1 38
2019-10-13 17:00:00 20.8 7 Sur 22 Sudoeste 0 927.9 -1.2 39
2019-10-13 16:00:00 21.9 15 Sudoeste 27 Oeste 0 928.1 -1.3 38
2019-10-13 15:00:00 21 14 Sur 26 Sudeste 0 928.4 -1.1 39
2019-10-13 14:00:00 20 9 Sudoeste 32 Sudeste 0 929.1 -0.6 46
2019-10-13 13:00:00 19.7 11 Sudoeste 25 Sur 0 929.4 0.4 50
2019-10-13 12:00:00 18 12 Sur 22 Sur 0 929.5 1 58
2019-10-13 11:00:00 16.5 10 Sudoeste 19 Sudoeste 0 929.7 1.7 69
2019-10-13 10:00:00 16.2 2 Oeste 8 Sudeste 0 929 1.2 79
2019-10-13 09:00:00 15.8 4 Este 7 Este 0 928.5 1 83
2019-10-13 08:00:00 16 0 Calma 11 Este 0 928 0.3 82
2019-10-13 07:00:00 16.3 6 Este 13 Este 0 927.8 -0.4 79
2019-10-13 06:00:00 16.8 6 Este 19 Este 0 927.5 -1.3 73
2019-10-13 05:00:00 17.1 9 Este 21 Este 0 927.7 -1.2 70
2019-10-13 04:00:00 17.2 7 Nordeste 15 Este 0 928.2 -0.9 58
2019-10-13 03:00:00 15.8 6 Este 13 Este 0 928.8 -0.3 59
2019-10-13 02:00:00 16.8 5 Nordeste 12 Este 0 928.9 -0.3 57
2019-10-13 01:00:00 17.2 5 Nordeste 16 Nordeste 0 929.1 0.3 57
2019-10-13 00:00:00 17.7 9 Nordeste 25 Nordeste 0 929.1 1.1 57
2019-10-12 23:00:00 17.3 9 Nordeste 23 Nordeste 0 929.2 1.8 58
2019-10-12 22:00:00 17.7 10 Nordeste 22 Nordeste 0 928.8 1.2 59
2019-10-12 21:00:00 20.1 10 Nordeste 19 Nordeste 0 928 0.3 48
2019-10-12 20:00:00 21.3 6 Nordeste 21 Noroeste 0 927.4 -0.5 43
2019-10-12 19:00:00 23.6 4 Sur 20 Sudeste 0 927.6 -0.9 35
2019-10-12 18:00:00 24.8 11 Sudeste 21 Sur 0 927.7 -1.4 33
2019-10-12 17:00:00 26.6 7 Sur 24 Sudeste 0 927.9 -2.2 32
2019-10-12 16:00:00 25.5 10 Sur 26 Sudeste 0 928.5 -2.1 35
2019-10-12 15:00:00 25.3 11 Sudeste 23 Sudeste 0 929.1 -1.7 38
2019-10-12 14:00:00 23.7 10 Sudeste 21 Sudeste 0 930.1 -0.5 44
2019-10-12 13:00:00 21.8 10 Este 20 Sudeste 0 930.6 0.4 48
2019-10-12 12:00:00 20.5 13 Este 21 Sudeste 0 930.8 0.9 52
2019-10-12 11:00:00 19.2 9 Nordeste 21 Nordeste 0 930.6 0.8 58
2019-10-12 10:00:00 18.1 10 Este 17 Nordeste 0 930.2 0.2 60
2019-10-12 09:00:00 16.9 9 Nordeste 15 Nordeste 0 929.9 0.3 63
2019-10-12 08:00:00 17.2 7 Nordeste 12 Nordeste 0 929.8 0.4 61
2019-10-12 07:00:00 18 4 Nordeste 11 Nordeste 0 930 0.2 60
2019-10-12 06:00:00 18.4 5 Nordeste 10 Norte 0 929.6 -0.4 59
2019-10-12 05:00:00 18.6 6 Nordeste 11 Nordeste 0 929.4 -0.9 59
2019-10-12 04:00:00 18.7 5 Nordeste 12 Nordeste 0 929.8 -0.6 60
2019-10-12 03:00:00 19.1 0 Calma 8 Nordeste 0 930 -0.4 57
2019-10-12 02:00:00 19.4 4 Nordeste 7 Nordeste 0 930.3 -0.2 57
2019-10-12 01:00:00 19.3 0 Calma -- -- 0 930.4 0.4 57
2019-10-12 00:00:00 20.3 0 Calma 6 Nordeste 0 930.4 0.1 54
2019-10-11 23:00:00 20 0 Calma 9 Nordeste 0 930.5 0.5 53
2019-10-11 22:00:00 20.7 5 Nordeste 7 Nordeste 0 930 0 51
2019-10-11 21:00:00 20.6 0 Calma 9 Nordeste 0 930.3 -0.1 50
2019-10-11 20:00:00 21.6 0 Calma 4 Nordeste 0 930 -0.5 47
2019-10-11 19:00:00 23.5 0 Calma 11 Sudoeste 0 930 -0.8 42
2019-10-11 18:00:00 24.3 8 Sur 18 Sudeste 0 930.4 -1.4 41
2019-10-11 17:00:00 24.7 6 Sur 21 Sudeste 0 930.5 -2.3 41
2019-10-11 16:00:00 24.3 10 Sudeste 19 Sudeste 0 930.8 -2.7 44
2019-10-11 15:00:00 23.9 8 Este 21 Este 0 931.8 -2.1 46
2019-10-11 14:00:00 22.7 9 Sudeste 22 Este 0 932.8 -1.4 51
2019-10-11 13:00:00 22.4 8 Sudeste 18 Sudeste 0 933.5 -0.4 51
2019-10-11 12:00:00 20.9 10 Sudeste 23 Este 0 933.9 0.6 57
2019-10-11 11:00:00 19.5 10 Este 18 Este 0 934.2 1.1 64
2019-10-11 10:00:00 18.1 5 Nordeste 12 Nordeste 0 933.9 1.1 70
2019-10-11 09:00:00 15.1 5 Nordeste 10 Nordeste 0 933.3 0.7 80
2019-10-11 08:00:00 14.8 5 Nordeste 10 Nordeste 0 933.1 0.5 78
2019-10-11 07:00:00 15.2 5 Nordeste 10 Nordeste 0 932.8 0.2 76
2019-10-11 06:00:00 15.3 0 Calma 9 Nordeste 0 932.6 -0.2 75
2019-10-11 05:00:00 16.4 4 Nordeste 8 Este 0 932.6 -0.2 71
2019-10-11 04:00:00 16.2 0 Calma 12 Nordeste 0 932.6 -0.2 67
2019-10-11 03:00:00 17.3 6 Nordeste 11 Nordeste 0 932.8 0.1 59
2019-10-11 02:00:00 18 9 Nordeste 12 Nordeste 0 932.8 0.4 55
2019-10-11 01:00:00 16.6 2 Nordeste 6 Nordeste 0 932.8 0.7 60
2019-10-11 00:00:00 17 0 Calma 5 Norte 0 932.7 1.1 58
2019-10-10 23:00:00 16.9 0 Calma 4 Nordeste 0 932.4 0.9 56
2019-10-10 22:00:00 17.5 0 Calma 7 Nordeste 0 932.1 0.9 53
2019-10-10 21:00:00 19.3 4 Nordeste 9 Nordeste 0 931.6 0.4 46
2019-10-10 20:00:00 20.5 4 Nordeste 6 Nordeste 0 931.5 0.2 43
2019-10-10 19:00:00 24.2 3 Este 13 Sudeste 0 931.2 -0.5 38
2019-10-10 18:00:00 25 6 Sur 15 Sudeste 0 931.2 -1 38
2019-10-10 17:00:00 24.2 6 Sudeste 16 Sudeste 0 931.3 -1.7 41
2019-10-10 16:00:00 23.5 9 Sudeste 18 Sudeste 0 931.7 -1.9 44
2019-10-10 15:00:00 22.9 10 Sudeste 21 Sudeste 0 932.2 -1.5 49
2019-10-10 14:00:00 21.3 7 Nordeste 25 Este 0 933 -0.7 55
2019-10-10 13:00:00 19.7 10 Este 21 Sudeste 0 933.6 0.4 60
2019-10-10 12:00:00 19 10 Sudeste 19 Sudeste 0 933.7 1.1 61
2019-10-10 11:00:00 17.5 7 Este 18 Este 0 933.7 1.5 64
2019-10-10 10:00:00 17.2 6 Este 13 Norte 0 933.2 1 61
2019-10-10 09:00:00 16.8 5 Nordeste 12 Nordeste 0 932.6 0.7 55
2019-10-10 08:00:00 16.5 5 Nordeste 15 Nordeste 0 932.2 0.4 53
2019-10-10 07:00:00 14.9 9 Nordeste 15 Nordeste 0 932.2 0.8 54
2019-10-10 06:00:00 15.1 8 Nordeste 26 Nordeste 0 931.9 0.4 54
2019-10-10 05:00:00 15.3 7 Nordeste 22 Nordeste 0 931.8 0.2 52
2019-10-10 04:00:00 13.9 2 Nordeste 12 Nordeste 0 931.4 -0.3 54
2019-10-10 03:00:00 14.2 4 Nordeste 6 Nordeste 0 931.5 0.2 52
2019-10-10 02:00:00 14.3 2 Nordeste 5 Nordeste 0 931.6 1.2 50
2019-10-10 01:00:00 15.8 3 Noroeste 6 Este 0 931.7 1.7 45
2019-10-10 00:00:00 17.6 3 Noroeste 13 Norte 0 931.3 1.9 39
2019-10-09 23:00:00 20.2 11 Noroeste 23 Noroeste 0 930.4 1.3 35
2019-10-09 22:00:00 20.5 3 Sudeste 27 Norte 0 930 1.2 33
2019-10-09 21:00:00 23.6 12 Norte 31 Norte 0 929.4 0.9 30
2019-10-09 20:00:00 24.2 11 Norte 26 Norte 0 929.1 0.3 28
2019-10-09 19:00:00 25.7 9 Norte 24 Norte 0 928.8 -0.3 26
2019-10-09 18:00:00 26.9 11 Norte 22 Norte 0 928.5 -0.9 26
2019-10-09 17:00:00 28.2 6 Sudoeste 21 Oeste 0 928.8 -1.1 29
2019-10-09 16:00:00 26.8 10 Oeste 22 Oeste 0 929.1 -1.4 31
2019-10-09 15:00:00 26.4 6 Oeste 21 Oeste 0 929.4 -1.4 33
2019-10-09 14:00:00 26.3 4 Oeste 24 Oeste 0 929.9 -0.8 36
2019-10-09 13:00:00 24.1 5 Noroeste 25 Norte 0 930.5 0.5 41
2019-10-09 12:00:00 22.3 11 Noroeste 30 Noroeste 0 930.8 1 47
2019-10-09 11:00:00 21.3 12 Norte 40 Norte 0 930.7 0.9 52
2019-10-09 10:00:00 19.9 9 Norte 33 Norte 0 930 1.1 59
2019-10-09 09:00:00 18.2 13 Norte 42 Norte 0 929.8 0.5 67
2019-10-09 08:00:00 18.4 18 Norte 42 Norte 0 929.8 0.6 62
2019-10-09 07:00:00 18.6 4 Sur 15 Noroeste 0 928.9 -0.4 57
2019-10-09 06:00:00 19.5 3 Oeste 23 Norte 0 929.3 -0.2 54
2019-10-09 05:00:00 21.1 11 Norte 26 Norte 0 929.2 -0.4 47
2019-10-09 04:00:00 21.5 9 Noroeste 26 Norte 0 929.3 -0.7 43
2019-10-09 03:00:00 22.1 11 Noroeste 22 Noroeste 0 929.5 -0.4 41
2019-10-09 02:00:00 23 9 Norte 28 Norte 0 929.6 -0.4 39
2019-10-09 01:00:00 22.8 8 Norte 28 Norte 0 930 0.2 38
2019-10-09 00:00:00 23.7 12 Norte 29 Norte 0 929.9 0.2 36
2019-10-08 23:00:00 24.7 13 Norte 27 Norte 0 930 0.6 34
2019-10-08 22:00:00 25.6 9 Norte 16 Norte 0 929.8 0.6 31
2019-10-08 21:00:00 22.3 3 Norte 6 Norte 0 929.7 0.4 34
2019-10-08 20:00:00 23.7 0 Calma 15 Sur 0 929.4 -0.6 31
2019-10-08 19:00:00 27.4 11 Sur 17 Sur 0 929.2 -1.1 27
2019-10-08 18:00:00 28.2 11 Sur 19 Sudoeste 0 929.3 -1.3 27
2019-10-08 17:00:00 28.3 10 Sudoeste 24 Sur 0 930 -1.6 27
2019-10-08 16:00:00 28.4 8 Sudoeste 20 Sur 0 930.3 -2 28
2019-10-08 15:00:00 27.8 6 Oeste 21 Sur 0 930.6 -2.1 29
2019-10-08 14:00:00 26.6 3 Sur 17 Sur 0 931.6 -1.2 30
2019-10-08 13:00:00 25.4 7 Sur 16 Sur 0 932.3 -0.5 33
2019-10-08 12:00:00 23.9 5 Sudoeste 12 Este 0 932.7 0.2 35
2019-10-08 11:00:00 23.1 3 Nordeste 9 Este 0 932.8 0.5 37
2019-10-08 10:00:00 20 0 Calma 8 Nordeste 0 932.8 0.7 43
2019-10-08 09:00:00 15.8 5 Nordeste 8 Nordeste 0 932.5 0.7 52
2019-10-08 08:00:00 13.7 2 Nordeste 5 Norte 0 932.3 0.3 54
2019-10-08 07:00:00 13.8 0 Calma 8 Nordeste 0 932.1 0 52
2019-10-08 06:00:00 15.2 2 Nordeste 8 Nordeste 0 931.8 -0.4 49
2019-10-08 05:00:00 15.3 2 Nordeste 6 Este 0 932 -0.2 48
2019-10-08 04:00:00 17.2 3 Nordeste 11 Nordeste 0 932.1 -0.3 44
2019-10-08 03:00:00 16.1 3 Nordeste 9 Nordeste 0 932.2 -0.5 45
2019-10-08 02:00:00 16.3 2 Nordeste 6 Nordeste 0 932.2 -0.1 43
2019-10-08 01:00:00 17.1 2 Nordeste 5 Nordeste 0 932.4 0.4 41
2019-10-08 00:00:00 17.8 0 Calma 5 Noroeste 0 932.7 1 41
2019-10-07 23:00:00 18.2 0 Calma 5 Norte 0 932.3 0.9 40
2019-10-07 22:00:00 19.7 2 Nordeste 10 Nordeste 0 932 0.9 36
2019-10-07 21:00:00 20.9 0 Calma 9 Nordeste 0 931.7 1 33
2019-10-07 20:00:00 24.3 5 Este 26 Norte 0 931.4 0.6 29
2019-10-07 19:00:00 26.5 13 Norte 29 Nordeste 0 931.1 0.1 27
2019-10-07 18:00:00 28.2 13 Norte 25 Nordeste 0 930.7 -0.6 26
2019-10-07 17:00:00 28.6 10 Nordeste 27 Norte 0 930.8 -1.2 26
2019-10-07 16:00:00 28.8 13 Nordeste 30 Nordeste 0 931 -1.3 27
2019-10-07 15:00:00 28 9 Nordeste 28 Norte 0 931.3 -1.3 27
2019-10-07 14:00:00 27 10 Norte 35 Noroeste 0 932 -0.6 28
2019-10-07 13:00:00 26.5 4 Nordeste 29 Noroeste 0 932.3 0.1 27
2019-10-07 12:00:00 24.3 13 Noroeste 31 Norte 0 932.6 0.6 28
2019-10-07 11:00:00 22.3 15 Norte 33 Norte 0 932.6 0.5 30
2019-10-07 10:00:00 20.5 11 Norte 40 Norte 0 932.2 0.7 33
2019-10-07 09:00:00 19.6 17 Norte 39 Norte 0 932 0.6 35
2019-10-07 08:00:00 18.9 12 Norte 37 Norte 0 932.1 0.3 35
2019-10-07 07:00:00 19 18 Norte 49 Norte 0 931.5 0.1 36
2019-10-07 06:00:00 18.3 15 Norte 35 Norte 0 931.4 -0.8 37
2019-10-07 05:00:00 18.4 0 Calma 44 Norte 0 931.8 -0.5 38
2019-10-07 04:00:00 20.2 24 Norte 50 Norte 0 931.4 -1.2 36
2019-10-07 03:00:00 19.8 2 Noroeste 40 Nordeste 0 932.2 -0.8 34
2019-10-07 02:00:00 19 3 Sur 29 Norte 0 932.3 -0.6 36
2019-10-07 01:00:00 20.3 11 Norte 27 Norte 0 932.6 0.2 34
2019-10-07 00:00:00 20.9 12 Norte 32 Norte 0 933 1 33
2019-10-06 23:00:00 20.8 12 Norte 22 Norte 0 932.9 1.7 33
2019-10-06 22:00:00 20.9 5 Norte 23 Nordeste 0 932.4 1.2 33
2019-10-06 21:00:00 22.3 15 Nordeste 27 Nordeste 0 932 1.1 30
2019-10-06 20:00:00 23.7 6 Noroeste 22 Norte 0 931.2 0 26
2019-10-06 19:00:00 25.9 9 Noroeste 24 Oeste 0 931.2 -0.2 24
2019-10-06 18:00:00 26.7 10 Noroeste 24 Noroeste 0 930.9 -0.6 24
2019-10-06 17:00:00 27.6 6 Norte 28 Oeste 0 931.2 -0.9 24
2019-10-06 16:00:00 27 6 Norte 24 Sur 0 931.4 -1.3 26
2019-10-06 15:00:00 27.4 6 Noroeste 19 Oeste 0 931.5 -1.1 24
2019-10-06 14:00:00 26.4 5 Sudeste 17 Oeste 0 932.1 -0.5 26
2019-10-06 13:00:00 23.9 5 Oeste 14 Oeste 0 932.7 0.2 29
2019-10-06 12:00:00 22.8 8 Sudeste 16 Sudeste 0 932.6 0.6 31
2019-10-06 11:00:00 22.1 7 Oeste 14 Oeste 0 932.6 1.2 32
2019-10-06 10:00:00 18.6 5 Sudoeste 8 Sudoeste 0 932.5 1.6 38
2019-10-06 09:00:00 13.7 0 Calma 5 Norte 0 932 1.3 46
2019-10-06 08:00:00 13.1 0 Calma 10 Norte 0 931.4 1.1 43
2019-10-06 07:00:00 14.9 0 Calma 10 Sudeste 0 930.9 0.4 38
2019-10-06 06:00:00 17.3 3 Norte 26 Norte 0 930.7 -0.1 33
2019-10-06 05:00:00 19.8 13 Norte 32 Norte 0 930.3 -0.9 27
2019-10-06 04:00:00 21 17 Norte 36 Norte 0 930.5 -0.7 27
2019-10-06 03:00:00 19.9 12 Noroeste 32 Norte 0 930.8 0.1 29
2019-10-06 02:00:00 19.9 17 Norte 32 Norte 0 931.2 0.6 32
2019-10-06 01:00:00 19.8 10 Norte 33 Norte 0 931.2 1 33
2019-10-06 00:00:00 21.2 18 Norte 32 Norte 0 930.7 1.2 32
2019-10-05 23:00:00 21.6 11 Norte 22 Norte 0 930.6 1.4 33
2019-10-05 22:00:00 22.5 12 Norte 25 Norte 0 930.2 1.5 32
2019-10-05 21:00:00 23.1 11 Norte 22 Norte 0 929.5 1.2 33
2019-10-05 20:00:00 22.8 3 Noroeste 20 Sudoeste 0 929.2 1 34
2019-10-05 19:00:00 25.3 13 Sudoeste 25 Sudoeste 0 928.7 0.1 31
2019-10-05 18:00:00 26.6 14 Sudoeste 25 Sudoeste 0 928.3 -1 31
2019-10-05 17:00:00 26.6 10 Sur 23 Sudoeste 0 928.2 -1.5 30
2019-10-05 16:00:00 26.3 6 Sur 19 Oeste 0 928.6 -1.6 30
2019-10-05 15:00:00 25.8 7 Sudoeste 22 Sudeste 0 929.3 -1.1 32
2019-10-05 14:00:00 24 2 Sur 21 Sudeste 0 929.7 -0.6 35
2019-10-05 13:00:00 23.6 4 Sudoeste 17 Sudeste 0 930.2 0 38
2019-10-05 12:00:00 22.3 6 Sur 17 Sudeste 0 930.4 0.6 42
2019-10-05 11:00:00 21 9 Este 15 Sudeste 0 930.3 1.2 43
2019-10-05 10:00:00 19.6 4 Este 9 Nordeste 0 930.2 1.1 51
2019-10-05 09:00:00 14.1 0 Calma 7 Nordeste 0 929.8 0.7 73
2019-10-05 08:00:00 14.1 5 Nordeste 8 Nordeste 0 929.1 0.2 73
2019-10-05 07:00:00 13.3 0 Calma 6 Nordeste 0 929.1 0.1 73
2019-10-05 06:00:00 14.1 0 Calma 5 Nordeste 0 929.1 0.1 71
2019-10-05 05:00:00 14.8 0 Calma 6 Noroeste 0 928.9 0.1 66
2019-10-05 04:00:00 16.5 2 Sudoeste 14 Sudeste 0 929 -0.2 58
2019-10-05 03:00:00 19.9 6 Norte 30 Noroeste 0 929 -0.1 48
2019-10-05 02:00:00 20.1 15 Norte 30 Norte 0 928.8 -0.2 49
2019-10-05 01:00:00 20.4 15 Norte 27 Norte 0 929.2 0.4 48
2019-10-05 00:00:00 21.4 15 Norte 25 Noroeste 0 929.1 0.6 46
2019-10-04 23:00:00 21.6 12 Norte 26 Norte 0 929 0.7 48
2019-10-04 22:00:00 19.7 3 Este 17 Noroeste 0 928.8 0.7 42
2019-10-04 21:00:00 21.5 2 Noroeste 18 Oeste 0 928.5 0.4 39
2019-10-04 20:00:00 23.5 8 Oeste 20 Oeste 0 928.3 -0.2 29
2019-10-04 19:00:00 25.9 10 Oeste 28 Sur 0 928.1 -0.9 27
2019-10-04 18:00:00 26.2 17 Sudoeste 29 Sur 0 928.1 -1.6 26
2019-10-04 17:00:00 27.4 7 Sudoeste 22 Sudoeste 0 928.5 -2 26
2019-10-04 16:00:00 26.7 8 Sudoeste 19 Sudoeste 0 929 -2 27
2019-10-04 15:00:00 24.8 8 Sudoeste 22 Sudoeste 0 929.7 -1.6 29
2019-10-04 14:00:00 24.4 9 Sudoeste 21 Sur 0 930.5 -1 29
2019-10-04 13:00:00 23.3 7 Sur 15 Sur 0 931 -0.7 31
2019-10-04 12:00:00 22.4 7 Sur 16 Sudoeste 0 931.3 0 34
2019-10-04 11:00:00 21.1 0 Calma 8 Sur 0 931.5 0.5 39
2019-10-04 10:00:00 18 0 Calma -- -- 0 931.7 0.8 47
2019-10-04 09:00:00 13.7 0 Calma -- -- 0 931.3 0.4 57
2019-10-04 08:00:00 12 0 Calma 6 Nordeste 0 931 -0.1 58
2019-10-04 07:00:00 12.9 0 Calma 7 Nordeste 0 930.9 0.1 59
2019-10-04 06:00:00 14.3 0 Calma 9 Norte 0 930.9 -0.3 55
2019-10-04 05:00:00 17.3 0 Calma 22 Noroeste 0 931.1 -0.2 47
2019-10-04 04:00:00 18.3 11 Noroeste 29 Norte 0 930.8 -0.6 44
2019-10-04 03:00:00 18.5 14 Norte 29 Norte 0 931.2 -0.5 38
2019-10-04 02:00:00 20.3 13 Norte 32 Norte 0 931.3 0.1 32
2019-10-04 01:00:00 20.7 12 Norte 29 Norte 0 931.4 0.5 30
2019-10-04 00:00:00 19.8 3 Noroeste 29 Norte 0 931.7 0.8 32
2019-10-03 23:00:00 21.7 13 Norte 32 Nordeste 0 931.2 0.3 29
2019-10-03 22:00:00 22.3 15 Norte 32 Norte 0 930.9 0.5 28
2019-10-03 21:00:00 22.2 9 Norte 22 Norte 0 930.9 0.6 28
2019-10-03 20:00:00 22.1 3 Sudeste 12 Nordeste 0 930.9 0.7 26
2019-10-03 19:00:00 24.5 3 Nordeste 21 Nordeste 0 930.4 -0.1 24
2019-10-03 18:00:00 26.2 12 Noroeste 22 Noroeste 0 930.3 -0.3 22
2019-10-03 17:00:00 25.6 9 Noroeste 33 Oeste 0 930.2 -1.2 23
2019-10-03 16:00:00 25.8 9 Noroeste 24 Noroeste 0 930.5 -1.4 24
2019-10-03 15:00:00 25.4 4 Noroeste 28 Noroeste 0 930.6 -1.9 26
2019-10-03 14:00:00 24.1 10 Noroeste 24 Noroeste 0 931.4 -0.9 29
2019-10-03 13:00:00 22.9 9 Noroeste 27 Noroeste 0 931.9 -0.3 31
2019-10-03 12:00:00 20.4 7 Noroeste 18 Noroeste 0 932.5 0.6 36
2019-10-03 11:00:00 18.6 6 Noroeste 15 Noroeste 0 932.3 0.6 41
2019-10-03 10:00:00 16.7 5 Noroeste 19 Noroeste 0 932.2 0.5 44
2019-10-03 09:00:00 15.4 5 Nordeste 28 Norte 0 931.9 0.3 47
2019-10-03 08:00:00 9.8 2 Oeste 13 Norte 0 931.7 -0.1 67
2019-10-03 07:00:00 9.5 0 Calma 4 Nordeste 0 931.7 -0.1 65
2019-10-03 06:00:00 10.1 0 Calma 6 Nordeste 0 931.6 -0.4 61
2019-10-03 05:00:00 11 3 Nordeste 8 Nordeste 0 931.8 0 56
2019-10-03 04:00:00 12.3 4 Nordeste 9 Nordeste 0 931.8 -0.3 51
2019-10-03 03:00:00 14.6 6 Nordeste 18 Noroeste 0 932 -0.4 45
2019-10-03 02:00:00 15 12 Noroeste 26 Noroeste 0 931.8 -0.2 43
2019-10-03 01:00:00 15.9 15 Noroeste 28 Norte 0 932.1 0.5 41
2019-10-03 00:00:00 17.4 6 Norte 22 Norte 0 932.4 1 39
2019-10-02 23:00:00 17.5 10 Norte 28 Norte 0 932 0.9 38
2019-10-02 22:00:00 16.3 4 Sur 25 Norte 0 931.6 0.8 39
2019-10-02 21:00:00 18.8 13 Norte 27 Norte 0 931.4 0.8 35
2019-10-02 20:00:00 19 10 Norte 26 Norte 0 931.1 0.5 35
2019-10-02 19:00:00 20.8 8 Norte 27 Noroeste 0 930.8 -0.1 33
2019-10-02 18:00:00 21.7 11 Nordeste 27 Nordeste 0 930.6 -0.1 32
2019-10-02 17:00:00 22.1 8 Norte 32 Noroeste 0 930.6 -0.8 32
2019-10-02 16:00:00 22.1 9 Norte 33 Nordeste 0 930.9 -0.8 33
2019-10-02 15:00:00 20.9 10 Nordeste 27 Nordeste 0 930.7 -1 35
2019-10-02 14:00:00 20 6 Nordeste 31 Nordeste 0 931.4 -0.4 38
2019-10-02 13:00:00 18.9 7 Norte 25 Este 0 931.7 0.6 41
2019-10-02 12:00:00 18 6 Noroeste 26 Noroeste 0 931.7 0.8 46
2019-10-02 11:00:00 15.4 9 Noroeste 26 Noroeste 0 931.8 1.3 54
2019-10-02 10:00:00 13.4 11 Noroeste 23 Oeste 0 931.1 1.4 60
2019-10-02 09:00:00 12.7 9 Noroeste 31 Norte 0 930.9 1.4 63
2019-10-02 08:00:00 12.6 7 Norte 31 Oeste 0 930.5 1 63
2019-10-02 07:00:00 13.2 5 Noroeste 30 Norte 0 929.7 0.6 63
2019-10-02 06:00:00 13.7 9 Norte 42 Norte 0 929.5 -0.4 63
2019-10-02 05:00:00 14 7 Norte 33 Noroeste 0 929.5 -0.4 63
2019-10-02 04:00:00 14.7 21 Noroeste 41 Noroeste 0 929.1 -0.8 60
2019-10-02 03:00:00 15.6 13 Noroeste 37 Norte 0 929.9 0.1 55
2019-10-02 02:00:00 16.4 15 Norte 39 Norte 0 929.9 0.3 48
2019-10-02 01:00:00 17.5 13 Noroeste 31 Norte 0 929.9 0.9 44
2019-10-02 00:00:00 18.5 12 Norte 30 Norte 0 929.8 1.2 43
2019-10-01 23:00:00 18.9 10 Noroeste 27 Noroeste 0 929.6 1.6 42
2019-10-01 22:00:00 19.1 10 Noroeste 21 Oeste 0 929 1.1 42
2019-10-01 21:00:00 19.7 5 Noroeste 26 Noroeste 0 928.6 1.1 40
2019-10-01 20:00:00 20.8 8 Noroeste 26 Noroeste 0 928 0.7 39
2019-10-01 19:00:00 22.4 15 Noroeste 44 Noroeste 0 927.9 0.3 37
2019-10-01 18:00:00 23.5 9 Noroeste 38 Noroeste 0 927.5 0 38
2019-10-01 17:00:00 22.6 15 Norte 44 Norte 0 927.3 -0.5 38
2019-10-01 16:00:00 23.5 15 Norte 46 Norte 0 927.6 -0.6 36
2019-10-01 15:00:00 23.4 16 Norte 39 Noroeste 0 927.5 -0.7 35
2019-10-01 14:00:00 23 14 Norte 35 Noroeste 0 927.8 -0.1 36
2019-10-01 13:00:00 20.9 7 Norte 36 Noroeste 0 928.2 0.7 43
2019-10-01 12:00:00 21.3 16 Noroeste 35 Norte 0 928.2 1.2 43
2019-10-01 11:00:00 22.4 5 Noroeste 18 Noroeste 0 927.9 1 35
2019-10-01 10:00:00 18.7 0 Calma 6 Nordeste 0 927.5 0.7 39
2019-10-01 09:00:00 13.4 0 Calma 10 Sudoeste 0 927 0.4 42
2019-10-01 08:00:00 14.2 2 Nordeste 7 Nordeste 0 926.9 0 41
2019-10-01 07:00:00 13.2 0 Calma 7 Nordeste 0 926.8 -0.7 41
2019-10-01 06:00:00 13.7 0 Calma 8 Nordeste 0 926.6 -1.6 39
2019-10-01 05:00:00 14.6 0 Calma 7 Nordeste 0 926.9 -1.3 37
2019-10-01 04:00:00 14.7 2 Este 5 Este 0 927.5 -0.8 36
2019-10-01 03:00:00 15 0 Calma 5 Sudoeste 0 928.2 -0.3 33
2019-10-01 02:00:00 17.2 3 Nordeste 8 Oeste 0 928.2 -0.4 29
2019-10-01 01:00:00 19.4 4 Noroeste 18 Noroeste 0 928.3 0 24
2019-10-01 00:00:00 18.5 3 Sur 11 Noroeste 0 928.5 0.3 23
2019-09-30 23:00:00 19.8 3 Noroeste 13 Norte 0 928.6 0.4 21
2019-09-30 22:00:00 22.6 9 Noroeste 20 Oeste 0 928.3 0.3 19
2019-09-30 21:00:00 24.6 11 Oeste 27 Oeste 0 928.2 0 17
2019-09-30 20:00:00 26.2 10 Oeste 30 Sudoeste 0 928.2 -0.6 17
2019-09-30 19:00:00 27.6 14 Oeste 29 Oeste 0 928 -1.2 16
2019-09-30 18:00:00 28.7 11 Oeste 30 Sudoeste 0 928.2 -1.7 17
2019-09-30 17:00:00 28.7 8 Sur 24 Oeste 0 928.8 -2 21
2019-09-30 16:00:00 28 9 Sudoeste 25 Sudoeste 0 929.2 -1.9 22
2019-09-30 15:00:00 27.6 9 Sur 23 Sur 0 929.9 -1.8 23
2019-09-30 14:00:00 27.2 6 Sudoeste 23 Sur 0 930.8 -0.9 24
2019-09-30 13:00:00 26.1 9 Sur 16 Sudeste 0 931.1 -0.3 26
2019-09-30 12:00:00 24.5 6 Sudoeste 12 Sur 0 931.7 0.4 29
2019-09-30 11:00:00 22.7 6 Sudoeste 9 Sudoeste 0 931.7 0.6 34
2019-09-30 10:00:00 20.7 0 Calma 4 Nordeste 0 931.4 0.6 39
2019-09-30 09:00:00 15.2 0 Calma 4 Nordeste 0 931.3 0.6 49
2019-09-30 08:00:00 13.2 0 Calma 6 Nordeste 0 931.1 0.4 50
2019-09-30 07:00:00 13.8 0 Calma 7 Nordeste 0 930.8 -0.2 48
2019-09-30 06:00:00 14.7 2 Nordeste 6 Nordeste 0 930.7 -0.5 44
2019-09-30 05:00:00 16.1 0 Calma 4 Nordeste 0 930.7 -0.5 39
2019-09-30 04:00:00 17.7 0 Calma 17 Noroeste 0 931 -0.2 33
2019-09-30 03:00:00 20.8 9 Noroeste 21 Noroeste 0 931.2 0 26
2019-09-30 02:00:00 21.6 13 Noroeste 24 Norte 0 931.2 0.1 24
2019-09-30 01:00:00 22.2 10 Noroeste 25 Norte 0 931.2 0.5 23
2019-09-30 00:00:00 24.2 12 Norte 27 Norte 0 931.2 0.8 22
2019-09-29 23:00:00 24.5 13 Norte 27 Norte 0 931.1 1.1 23
2019-09-29 22:00:00 24.7 9 Norte 24 Norte 0 930.7 0.8 23
2019-09-29 21:00:00 25.2 11 Norte 18 Norte 0 930.4 0.6 23
2019-09-29 20:00:00 25 5 Noroeste 23 Oeste 0 930 -0.2 23
2019-09-29 19:00:00 27.7 11 Oeste 26 Sudoeste 0 929.9 -0.8 21
2019-09-29 18:00:00 29.1 10 Oeste 23 Oeste 0 929.8 -1.4 21
2019-09-29 17:00:00 29.2 4 Oeste 22 Sudoeste 0 930.2 -1.8 20
2019-09-29 16:00:00 28.6 11 Sudoeste 24 Sur 0 930.7 -1.6 21
2019-09-29 15:00:00 27.9 13 Sudoeste 28 Sudoeste 0 931.2 -1.3 23
2019-09-29 14:00:00 27.5 10 Sudoeste 22 Sudoeste 0 932 -0.4 25
2019-09-29 13:00:00 25.6 7 Sur 17 Sudoeste 0 932.3 0.2 27
2019-09-29 12:00:00 24.2 8 Sudoeste 12 Sur 0 932.5 0.7 29
2019-09-29 11:00:00 21.7 5 Sudoeste 8 Sudoeste 0 932.4 1 31
2019-09-29 10:00:00 20 0 Calma 3 Sudoeste 0 932.1 0.9 36
2019-09-29 09:00:00 14.1 0 Calma 6 Nordeste 0 931.8 0.6 46
2019-09-29 08:00:00 12.1 3 Nordeste 6 Nordeste 0 931.4 0.1 46
2019-09-29 07:00:00 12.5 2 Norte 9 Nordeste 0 931.2 -0.3 44
2019-09-29 06:00:00 13.5 2 Nordeste 5 Nordeste 0 931.2 -0.7 43
2019-09-29 05:00:00 13.6 3 Norte 6 Nordeste 0 931.3 -0.4 42
2019-09-29 04:00:00 14 0 Calma 6 Nordeste 0 931.5 -0.3 41
2019-09-29 03:00:00 14.5 0 Calma 5 Norte 0 931.9 -0.1 39
2019-09-29 02:00:00 15.2 3 Nordeste 8 Nordeste 0 931.7 0 38
2019-09-29 01:00:00 16.4 3 Nordeste 7 Nordeste 0 931.8 0.1 36
2019-09-29 00:00:00 16.1 0 Calma 5 Nordeste 0 932 0.4 36
2019-09-28 23:00:00 16.7 0 Calma 7 Nordeste 0 931.7 0.4 34
2019-09-28 22:00:00 18.2 0 Calma 8 Nordeste 0 931.7 0.3 30
2019-09-28 21:00:00 19.9 3 Nordeste 6 Nordeste 0 931.6 0.2 27
2019-09-28 20:00:00 23.2 2 Noroeste 15 Sudoeste 0 931.3 -0.2 23
2019-09-28 19:00:00 26.9 10 Sudoeste 17 Sudoeste 0 931.4 -0.6 20
2019-09-28 18:00:00 27.5 7 Sudoeste 19 Sudoeste 0 931.4 -1 20
2019-09-28 17:00:00 28.1 8 Sur 20 Sudoeste 0 931.5 -1.6 20
2019-09-28 16:00:00 27.8 6 Sudeste 20 Sudoeste 0 932 -1.6 23
2019-09-28 15:00:00 26.9 6 Sudeste 19 Sur 0 932.4 -1.5 23
2019-09-28 14:00:00 26.1 8 Sur 20 Sur 0 933.1 -0.8 26
2019-09-28 13:00:00 24.8 0 Calma 14 Sudoeste 0 933.6 -0.1 28
2019-09-28 12:00:00 23.2 6 Sudoeste 12 Sudoeste 0 933.9 0.8 31
2019-09-28 11:00:00 21.8 0 Calma 5 Sudoeste 0 933.9 1.3 36
2019-09-28 10:00:00 17.6 0 Calma -- -- 0 933.7 1 50
2019-09-28 09:00:00 13.9 0 Calma 5 Nordeste 0 933.1 0.5 59
2019-09-28 08:00:00 12.1 0 Calma 5 Nordeste 0 932.6 0 61
2019-09-28 07:00:00 12.5 0 Calma 8 Nordeste 0 932.7 0.1 62
2019-09-28 06:00:00 13.6 6 Nordeste 8 Nordeste 0 932.6 0 61
2019-09-28 05:00:00 14.3 0 Calma 4 Este 0 932.6 0 58
2019-09-28 04:00:00 15.9 2 Nordeste 21 Noroeste 0 932.6 0.1 51
2019-09-28 03:00:00 18 9 Noroeste 25 Norte 0 932.6 0.2 45
2019-09-28 02:00:00 19.6 12 Norte 36 Norte 0 932.6 0.1 39
2019-09-28 01:00:00 20 18 Norte 42 Norte 0 932.5 0.4 37
2019-09-28 00:00:00 21.2 16 Norte 35 Norte 0 932.4 0.8 30
2019-09-27 23:00:00 21.8 12 Norte 27 Noroeste 0 932.5 1.4 27
2019-09-27 22:00:00 22.4 10 Norte 23 Norte 0 932.1 1.1 26
2019-09-27 21:00:00 23 11 Norte 22 Norte 0 931.6 1.1 23
2019-09-27 20:00:00 24.3 9 Norte 22 Noroeste 0 931.1 0.6 23
2019-09-27 19:00:00 26.1 10 Norte 23 Noroeste 0 931 0.2 23
2019-09-27 18:00:00 27.3 14 Sur 23 Sur 0 930.5 -0.8 25
2019-09-27 17:00:00 28 9 Sudoeste 23 Sudoeste 0 930.5 -1.5 22
2019-09-27 16:00:00 28.4 4 Sur 20 Noroeste 0 930.8 -1.4 21
2019-09-27 15:00:00 27 8 Noroeste 22 Norte 0 931.3 -1.2 21
2019-09-27 14:00:00 26.3 11 Noroeste 21 Noroeste 0 932 -0.7 23
2019-09-27 13:00:00 26 5 Noroeste 23 Noroeste 0 932.2 -0.2 26
2019-09-27 12:00:00 24.2 8 Noroeste 15 Oeste 0 932.5 0.4 26
2019-09-27 11:00:00 23.1 4 Este 9 Este 0 932.7 0.8 29
2019-09-27 10:00:00 21 3 Este 5 Nordeste 0 932.4 0.5 34
2019-09-27 09:00:00 15.8 3 Este 6 Este 0 932.1 0.4 41
2019-09-27 08:00:00 15 0 Calma 8 Norte 0 931.9 0.6 38
2019-09-27 07:00:00 16.7 0 Calma 9 Sudeste 0 931.9 0.1 33
2019-09-27 06:00:00 17.5 2 Norte 15 Norte 0 931.7 -0.3 30
2019-09-27 05:00:00 19.6 8 Noroeste 21 Nordeste 0 931.3 -0.6 28
2019-09-27 04:00:00 20.1 11 Noroeste 26 Noroeste 0 931.8 -0.4 27
2019-09-27 03:00:00 20.3 15 Noroeste 26 Noroeste 0 932 -0.1 27
2019-09-27 02:00:00 21.4 13 Noroeste 26 Norte 0 931.9 0 27
2019-09-27 01:00:00 21.6 15 Norte 30 Norte 0 932.2 0.5 28
2019-09-27 00:00:00 22.7 15 Norte 35 Norte 0 932.1 0.9 28
2019-09-26 23:00:00 23 11 Norte 24 Norte 0 931.9 1.1 33
2019-09-26 22:00:00 19.9 2 Norte 11 Nordeste 0 931.7 0.9 40
2019-09-26 21:00:00 21.4 0 Calma 8 Oeste 0 931.2 0.4 36
2019-09-26 20:00:00 23.9 4 Sudoeste 18 Sudoeste 0 930.8 -0.2 30
2019-09-26 19:00:00 25.6 12 Sur 22 Sur 0 930.8 -0.6 29
2019-09-26 18:00:00 26.4 9 Sur 24 Sudeste 0 930.8 -0.9 28
2019-09-26 17:00:00 26.3 7 Sur 25 Sur 0 931 -1.3 29
2019-09-26 16:00:00 26.3 8 Sur 22 Sudoeste 0 931.4 -1.4 29
2019-09-26 15:00:00 24.6 7 Sur 20 Sur 0 931.7 -1.4 31
2019-09-26 14:00:00 24.7 6 Sur 19 Sur 0 932.3 -1 31
2019-09-26 13:00:00 23.7 5 Sur 14 Sur 0 932.8 -0.2 34
2019-09-26 12:00:00 22.4 0 Calma 18 Este 0 933.1 0.5 36
2019-09-26 11:00:00 20.8 3 Nordeste 10 Sudeste 0 933.3 1.1 41
2019-09-26 10:00:00 19.1 3 Este 7 Este 0 933 1.6 45
2019-09-26 09:00:00 14.5 0 Calma 6 Nordeste 0 932.6 1.2 67
2019-09-26 08:00:00 12.1 0 Calma 5 Nordeste 0 932.2 0.7 67
2019-09-26 07:00:00 12.2 0 Calma 6 Nordeste 0 931.4 -0.1 66
2019-09-26 06:00:00 12.7 0 Calma 6 Norte 0 931.4 -0.2 62
2019-09-26 05:00:00 12.9 0 Calma 6 Nordeste 0 931.5 -0.1 60
2019-09-26 04:00:00 13.7 2 Nordeste 5 Nordeste 0 931.5 -0.1 55
2019-09-26 03:00:00 14.7 0 Calma 8 Este 0 931.6 0 51
2019-09-26 02:00:00 15 0 Calma 6 Sur 0 931.6 0.6 49
2019-09-26 01:00:00 15.4 0 Calma 6 Sudeste 0 931.6 0.7 46
2019-09-26 00:00:00 18 3 Sudoeste 20 Norte 0 931.6 1 39
2019-09-25 23:00:00 20.6 14 Norte 40 Norte 0 931 0.6 34
2019-09-25 22:00:00 19.2 16 Norte 30 Noroeste 0 930.9 0.8 36
2019-09-25 21:00:00 20 13 Norte 32 Norte 0 930.6 0.8 35
2019-09-25 20:00:00 21.1 14 Norte 29 Norte 0 930.4 0.5 33
2019-09-25 19:00:00 22.6 11 Noroeste 25 Noroeste 0 930.1 0 29
2019-09-25 18:00:00 23.8 9 Norte 26 Noroeste 0 929.8 -1 29
2019-09-25 17:00:00 23.9 11 Noroeste 23 Noroeste 0 929.9 -1.3 29
2019-09-25 16:00:00 23.4 12 Noroeste 24 Noroeste 0 930.1 -1.5 30
2019-09-25 15:00:00 22.4 7 Noroeste 24 Noroeste 0 930.8 -1.3 32
2019-09-25 14:00:00 20.9 10 Noroeste 28 Noroeste 0 931.2 -0.5 35
2019-09-25 13:00:00 19.9 10 Noroeste 27 Oeste 0 931.6 0.6 37
2019-09-25 12:00:00 18.1 12 Noroeste 33 Noroeste 0 932.1 1 44
2019-09-25 11:00:00 16.4 17 Noroeste 45 Norte 0 931.7 1.1 50
2019-09-25 10:00:00 14.9 19 Noroeste 45 Noroeste 0 931 0.8 54
2019-09-25 09:00:00 14.3 6 Norte 32 Norte 0 931.1 0.8 56
2019-09-25 08:00:00 14.2 7 Norte 40 Oeste 0 930.6 0.2 58
2019-09-25 07:00:00 14.2 4 Noroeste 35 Oeste 0 930.2 -0.2 58
2019-09-25 06:00:00 14.9 12 Noroeste 31 Norte 0 930.3 -0.3 58
2019-09-25 05:00:00 15.2 9 Norte 40 Noroeste 0 930.4 -0.2 58
2019-09-25 04:00:00 15.8 13 Norte 38 Norte 0 930.4 -0.3 57
2019-09-25 03:00:00 16.4 13 Norte 33 Norte 0 930.6 -0.3 57
2019-09-25 02:00:00 17.1 9 Norte 35 Norte 0 930.6 -0.1 57
2019-09-25 01:00:00 17.9 12 Norte 30 Norte 0 930.7 0 55
2019-09-25 00:00:00 18.8 9 Norte 22 Norte 0 930.9 0.6 58
2019-09-24 23:00:00 19.5 6 Noroeste 22 Noroeste 0 930.7 1 57
2019-09-24 22:00:00 20.5 6 Norte 22 Norte 0 930.7 1.4 54
2019-09-24 21:00:00 21.1 9 Noroeste 22 Norte 0 930.3 1.1 53
2019-09-24 20:00:00 22.4 10 Noroeste 31 Norte 0 929.7 0.2 48
2019-09-24 19:00:00 24.2 9 Oeste 25 Noroeste 0 929.3 -0.5 34
2019-09-24 18:00:00 24.8 10 Oeste 26 Oeste 0 929.2 -1.5 31
2019-09-24 17:00:00 26.3 11 Sudoeste 26 Sudoeste 0 929.5 -1.9 28
2019-09-24 16:00:00 26 14 Sudoeste 26 Sur 0 929.8 -2.2 26
2019-09-24 15:00:00 25.3 14 Sudoeste 26 Sudoeste 0 930.7 -1.7 26
2019-09-24 14:00:00 24.8 13 Sudoeste 24 Sudoeste 0 931.4 -1.2 28
2019-09-24 13:00:00 23.6 13 Sur 21 Sur 0 932 -0.2 31
2019-09-24 12:00:00 21.2 7 Sudoeste 27 Sur 0 932.4 0.3 36
2019-09-24 11:00:00 19.1 6 Sudoeste 12 Sudoeste 0 932.6 0.8 46
2019-09-24 10:00:00 16.3 0 Calma 4 Sudoeste 0 932.2 0.6 61
2019-09-24 09:00:00 13 0 Calma 7 Nordeste 0 932.1 0.6 78
2019-09-24 08:00:00 10.7 0 Calma 8 Nordeste 0.1 931.8 0 82
2019-09-24 07:00:00 11.1 0 Calma -- -- 0 931.6 -0.5 81
2019-09-24 06:00:00 11.9 0 Calma 6 Sur 0 931.5 -1.1 79
2019-09-24 05:00:00 12.5 0 Calma 5 Nordeste 0 931.8 -0.9 78
2019-09-24 04:00:00 12.6 3 Nordeste 8 Nordeste 0 932.1 -0.7 78
2019-09-24 03:00:00 13.2 0 Calma 6 Este 0 932.6 -0.7 76
2019-09-24 02:00:00 13.6 0 Calma 5 Sudeste 0 932.7 -- 73
2019-09-24 01:00:00 14.6 3 Sudeste 5 Sudeste 0 932.8 -0.4 67
2019-09-24 00:00:00 14.8 2 Sur 3 Nordeste 0.1 933.3 0.4 65
2019-09-23 23:00:00 -- 0 Calma 5 Nordeste 0 -- -- --
2019-09-23 22:00:00 17 0 Calma 6 Nordeste 0 933.2 0.9 46
2019-09-23 21:00:00 18.1 0 Calma 8 Sudoeste 0 932.9 0.7 38
2019-09-23 20:00:00 20.7 6 Sudoeste 21 Sudoeste 0 932.4 0.1 31
2019-09-23 19:00:00 22.3 12 Sudoeste 22 Sur 0 932.3 0.2 32
2019-09-23 18:00:00 22.5 10 Sudoeste 23 Sur 0 932.2 -0.5 32
2019-09-23 17:00:00 22.7 10 Sur 25 Sudoeste 0 932.3 -0.7 34
2019-09-23 16:00:00 21.8 11 Sur 22 Sudeste 0.1 932.1 -1.4 35
2019-09-23 15:00:00 21.6 8 Sur 17 Oeste 0 932.7 -0.8 36
2019-09-23 14:00:00 20.1 6 Sudeste 18 Sudeste 0 933 -0.5 37
2019-09-23 13:00:00 19.6 6 Sur 13 Sudoeste 0 933.5 0.1 39
2019-09-23 12:00:00 17.9 6 Sudoeste 14 Sudoeste 0 933.5 0.4 42
2019-09-23 11:00:00 17.2 4 Oeste 10 Sudoeste 0 933.5 0.9 43
2019-09-23 10:00:00 16.1 2 Sur 5 Sudoeste 0.1 933.4 1.2 46
2019-09-23 09:00:00 12.1 0 Calma 7 Nordeste 0 933.1 1.4 71
2019-09-23 08:00:00 9.9 0 Calma -- -- 0 932.6 1.3 72
2019-09-23 07:00:00 10.1 0 Calma 5 Nordeste 0 932.2 0.9 69
2019-09-23 06:00:00 10.9 0 Calma 9 Nordeste 0 931.7 0.5 62
2019-09-23 05:00:00 11.7 0 Calma 12 Oeste 0.1 931.3 0.1 56
2019-09-23 04:00:00 12.4 0 Calma 15 Noroeste 0 931.3 -0.1 51
2019-09-23 03:00:00 15.1 6 Norte 14 Noroeste 0 931.2 0.2 42
2019-09-23 02:00:00 15.1 4 Noroeste 19 Norte 0 931.2 0.2 43
2019-09-23 01:00:00 15.3 8 Norte 17 Norte 0 931.4 0.9 45
2019-09-23 00:00:00 13.7 0 Calma 8 Norte 0 931 1.5 52
2019-09-22 23:00:00 14.4 0 Calma 6 Noroeste 0.1 931 2 48
2019-09-22 22:00:00 15.4 3 Noroeste 7 Noroeste 0 930.5 2.1 45
2019-09-22 21:00:00 17.4 4 Norte 20 Norte 0 929.5 1.3 36
2019-09-22 20:00:00 18.8 8 Norte 24 Noroeste 0 929 1.1 33
2019-09-22 19:00:00 19.9 3 Norte 23 Nordeste 0 928.4 0.7 33
2019-09-22 18:00:00 19.9 6 Norte 22 Noroeste 0.1 928.2 0.6 33
2019-09-22 17:00:00 20.7 5 Norte 23 Noroeste 0 927.9 0.1 33
2019-09-22 16:00:00 21.6 8 Noroeste 25 Noroeste 0 927.7 0.1 31
2019-09-22 15:00:00 20.5 9 Oeste 32 Noroeste 0 927.6 -0.1 32
2019-09-22 14:00:00 18.6 11 Norte 30 Noroeste 0 927.8 0.2 39
2019-09-22 13:00:00 18.7 9 Norte 25 Noroeste 0.1 927.6 0.6 44
2019-09-22 12:00:00 17.8 9 Noroeste 24 Noroeste 0 927.7 1.2 49
2019-09-22 11:00:00 16.5 9 Noroeste 21 Noroeste 0 927.6 1.9 57
2019-09-22 10:00:00 15.1 9 Noroeste 23 Noroeste 0 927 1.5 68
2019-09-22 09:00:00 14.7 8 Noroeste 27 Norte 0.1 926.5 1.1 76
2019-09-22 08:00:00 15.2 10 Sudoeste 23 Sudoeste 0 925.7 0.2 88
2019-09-22 07:00:00 15.3 12 Sudoeste 30 Sudoeste 0 925.5 0 88
2019-09-22 06:00:00 15.4 5 Sudoeste 13 Oeste 0 925.4 -0.3 85
2019-09-22 05:00:00 15.7 4 Sudoeste 31 Oeste 0.1 925.5 -0.4 81
2019-09-22 04:00:00 15.8 11 Oeste 31 Sudoeste 0 925.5 -0.5 81
2019-09-22 03:00:00 15.3 0 Calma 9 Nordeste 0 925.7 -0.5 86
2019-09-22 02:00:00 15.4 3 Nordeste 9 Este 0 925.9 -0.4 86
2019-09-22 01:00:00 15.4 4 Este 9 Este 0.1 926 -0.2 85
2019-09-22 00:00:00 15.5 0 Calma 5 Nordeste 0 926.2 0.4 85
2019-09-21 23:00:00 15.4 0 Calma 8 Nordeste 0 926.3 0.4 83
2019-09-21 22:00:00 15.4 0 Calma 10 Noroeste 0 926.2 0.1 82
2019-09-21 21:00:00 16 8 Oeste 30 Norte 0 925.8 -0.2 73
2019-09-21 20:00:00 15.7 14 Oeste 29 Noroeste 0.1 925.9 -0.3 79
2019-09-21 19:00:00 15.9 9 Oeste 17 Oeste 0 926.1 -0.2 85
2019-09-21 18:00:00 16.5 5 Oeste 11 Oeste 0 926 -0.6 85
2019-09-21 17:00:00 17.2 5 Sudoeste 10 Sudoeste 0 926.2 -0.7 79
2019-09-21 16:00:00 17.8 3 Sur 6 Sur 0.1 926.3 -1 69
2019-09-21 15:00:00 17.9 2 Sudoeste 8 Oeste 0 926.6 -0.6 71
2019-09-21 14:00:00 18.4 5 Oeste 15 Sudoeste 0 926.9 -0.5 58
2019-09-21 13:00:00 17.9 7 Sudoeste 20 Sur 0 927.3 0.3 60
2019-09-21 12:00:00 18.2 6 Sur 20 Sur 0.1 927.2 0.1 58
2019-09-21 11:00:00 18.1 6 Sudeste 13 Sur 0 927.4 0.6 61
2019-09-21 10:00:00 16.9 3 Este 8 Este 0 927 0.3 71
2019-09-21 09:00:00 14.9 3 Nordeste 8 Norte 0 927.1 0.5 88
2019-09-21 08:00:00 12.6 0 Calma 8 Nordeste 0 926.8 0 88
2019-09-21 07:00:00 13 0 Calma -- -- 0.1 926.7 -0.4 87
2019-09-21 06:00:00 13.4 0 Calma 5 Noroeste 0 926.6 -0.5 87
2019-09-21 05:00:00 13.9 0 Calma 6 Este 0 926.8 -0.4 86
2019-09-21 04:00:00 15.3 0 Calma 6 Este 0 927.1 0.1 84
2019-09-21 03:00:00 16.4 0 Calma 10 Este 0 927.1 0 80
2019-09-21 02:00:00 17.2 4 Nordeste 11 Nordeste 0.1 927.2 -0.1 76
2019-09-21 01:00:00 17.4 5 Nordeste 11 Nordeste 0 927 0 73
2019-09-21 00:00:00 17.4 5 Nordeste 12 Este 0 927.1 0.2 71
2019-09-20 23:00:00 17.6 3 Nordeste 11 Nordeste 0 927.3 1.2 70
2019-09-20 22:00:00 18.6 6 Este 23 Sur 0.1 927 0.8 61
2019-09-20 21:00:00 18.4 0 Calma 10 Nordeste 0 926.9 0.5 76
2019-09-20 20:00:00 18.9 3 Nordeste 37 Sur 0 926.1 -0.8 77
2019-09-20 19:00:00 23 9 Sudeste 21 Sudeste 0 926.2 -1.5 45
2019-09-20 18:00:00 23.7 12 Sudeste 22 Sudeste 0.1 926.4 -1.7 43
2019-09-20 17:00:00 23.3 13 Este 23 Este 0 926.9 -1.8 45
2019-09-20 16:00:00 23.7 13 Este 30 Sudeste 0 927.7 -1.6 46
2019-09-20 15:00:00 23.6 11 Sudeste 27 Este 0 928.1 -1.7 46
2019-09-20 14:00:00 22.5 11 Este 24 Nordeste 0.1 928.7 -1.4 51
2019-09-20 13:00:00 21.8 12 Este 26 Este 0 929.3 -0.6 55
2019-09-20 12:00:00 19.5 12 Este 22 Sudeste 0 929.8 0.3 62
2019-09-20 11:00:00 18.5 15 Este 23 Este 0 930.1 0.9 67
2019-09-20 10:00:00 18.5 12 Este 21 Este 0.1 929.9 0.9 65
2019-09-20 09:00:00 18.3 7 Nordeste 16 Nordeste 0 929.5 0.8 66
2019-09-20 08:00:00 17.2 4 Nordeste 11 Este 0 929.2 0.4 70
2019-09-20 07:00:00 17.8 4 Nordeste 13 Nordeste 0.1 929 0 66
2019-09-20 06:00:00 18 7 Nordeste 13 Nordeste 0 928.7 -0.7 66
2019-09-20 05:00:00 18.4 6 Nordeste 16 Nordeste 0 928.8 -0.6 63
2019-09-20 04:00:00 18.9 6 Nordeste 13 Nordeste 0.1 929 -0.3 58
2019-09-20 03:00:00 19.3 6 Nordeste 20 Nordeste 0 929.4 0.1 52
2019-09-20 02:00:00 20.7 8 Nordeste 17 Nordeste 0 929.4 0 46
2019-09-20 01:00:00 21.1 10 Nordeste 17 Nordeste 0.1 929.3 0.3 42
2019-09-20 00:00:00 21.1 8 Nordeste 16 Nordeste 0 929.3 0.9 43